Time;durP1;ratioP1;P1;durP2;ratioP2;P2;SDS_P1;SDS_P2;PMS_P1;PMS_P2;Temp;Humidity;BMP_temperature;BMP_pressure;BME280_temperature;BME280_humidity;BME280_pressure;Samples;Min_cycle;Max_cycle;Signal;HPM_P1;HPM_P2
2022/01/31 00:01:38;;;;;;;28.92;22.25;;;24.10;88.90;;;;;;1951460;72;21170;-81
2022/01/31 00:04:09;;;;;;;28.12;22.22;;;24.10;89.50;;;;;;1979182;71;21108;-81
2022/01/31 00:06:42;;;;;;;34.45;22.07;;;24.10;90.20;;;;;;1953278;71;21190;-81
2022/01/31 00:09:15;;;;;;;30.80;22.80;;;24.10;90.20;;;;;;1921086;74;21169;-82
2022/01/31 00:11:55;;;;;;;31.80;22.00;;;24.10;90.70;;;;;;1951147;73;21151;-82
2022/01/31 00:14:30;;;;;;;41.83;23.45;;;24.10;90.50;;;;;;1966353;71;21164;-81
2022/01/31 00:16:49;;;;;;;25.00;20.45;;;24.10;90.70;;;;;;1913962;74;21142;-81
2022/01/31 00:19:20;;;;;;;26.65;20.08;;;24.10;90.50;;;;;;1922254;74;21127;-80
2022/01/31 00:21:51;;;;;;;26.33;20.85;;;24.10;90.30;;;;;;1972072;73;21120;-80
2022/01/31 00:24:22;;;;;;;29.87;20.37;;;24.10;90.30;;;;;;1956246;71;21109;-81
2022/01/31 00:26:53;;;;;;;29.48;21.15;;;24.20;90.40;;;;;;1908051;74;21139;-81
2022/01/31 00:29:23;;;;;;;26.33;20.27;;;24.10;90.40;;;;;;1960774;72;21124;-81
2022/01/31 00:31:54;;;;;;;30.97;21.50;;;24.20;90.90;;;;;;1960957;71;21179;-81
2022/01/31 00:34:26;;;;;;;30.50;23.12;;;24.20;89.80;;;;;;1952977;71;21215;-80
2022/01/31 00:36:56;;;;;;;32.90;22.73;;;24.10;90.00;;;;;;1958726;73;21173;-81
2022/01/31 00:39:28;;;;;;;34.98;21.52;;;24.20;90.10;;;;;;1957212;72;21147;-80
2022/01/31 00:41:58;;;;;;;26.17;21.60;;;24.20;90.40;;;;;;1910675;74;21179;-80
2022/01/31 00:44:40;;;;;;;27.13;21.15;;;24.20;90.70;;;;;;1869979;75;21136;-80
2022/01/31 00:47:05;;;;;;;40.63;24.23;;;24.20;90.50;;;;;;1905388;73;21134;-82
2022/01/31 00:49:37;;;;;;;31.12;23.12;;;24.20;90.40;;;;;;1903942;75;21245;-80
2022/01/31 00:52:06;;;;;;;34.15;23.10;;;24.20;90.70;;;;;;1906571;74;21155;-81
2022/01/31 00:54:37;;;;;;;28.83;21.52;;;24.20;90.70;;;;;;1897343;73;21171;-81
2022/01/31 00:57:07;;;;;;;26.90;20.92;;;24.20;90.70;;;;;;1909102;74;21138;-81
2022/01/31 00:59:38;;;;;;;25.70;20.40;;;24.20;89.60;;;;;;1904813;73;21120;-81
2022/01/31 01:02:08;;;;;;;25.82;21.17;;;24.20;90.20;;;;;;1905717;73;21060;-81
2022/01/31 01:04:40;;;;;;;30.40;20.50;;;24.20;90.20;;;;;;1903556;73;21227;-80
2022/01/31 01:07:11;;;;;;;25.15;20.02;;;24.30;90.40;;;;;;1954331;71;21084;-81
2022/01/31 01:09:44;;;;;;;24.27;19.02;;;24.30;90.60;;;;;;1948791;73;21129;-81
2022/01/31 01:12:17;;;;;;;27.60;20.60;;;24.30;90.60;;;;;;1951571;71;21127;-82
2022/01/31 01:14:49;;;;;;;28.65;19.75;;;24.30;90.40;;;;;;1962754;72;21156;-81
2022/01/31 01:17:20;;;;;;;25.08;19.55;;;24.40;90.60;;;;;;1961704;72;21053;-81
2022/01/31 01:19:51;;;;;;;27.20;19.62;;;24.40;90.30;;;;;;1918046;74;21206;-80
2022/01/31 01:22:21;;;;;;;24.90;19.25;;;24.40;89.40;;;;;;1965968;72;21139;-81
2022/01/31 01:24:52;;;;;;;26.68;17.82;;;24.50;89.20;;;;;;1948642;73;21053;-81
2022/01/31 01:27:23;;;;;;;24.92;18.57;;;24.50;90.30;;;;;;1942874;72;21120;-80
2022/01/31 01:29:55;;;;;;;30.37;19.23;;;24.60;90.30;;;;;;1944257;72;21635;-82
2022/01/31 01:32:30;;;;;;;23.57;18.92;;;24.60;90.30;;;;;;1966391;71;21057;-82
2022/01/31 01:35:08;;;;;;;26.75;19.23;;;24.60;90.30;;;;;;1952851;72;21092;-83
2022/01/31 01:37:38;;;;;;;23.83;18.50;;;24.70;90.30;;;;;;1956701;72;21127;-80
2022/01/31 01:40:09;;;;;;;26.90;19.12;;;24.80;90.00;;;;;;1933418;74;21136;-82
2022/01/31 01:42:41;;;;;;;26.93;19.65;;;24.80;89.60;;;;;;1967934;73;21040;-82
2022/01/31 01:45:12;;;;;;;30.88;20.37;;;24.80;89.50;;;;;;1943013;72;21883;-81
2022/01/31 01:47:42;;;;;;;24.45;18.67;;;24.90;90.00;;;;;;1957135;71;21176;-81
2022/01/31 01:50:13;;;;;;;27.20;20.92;;;24.90;89.30;;;;;;1952561;73;21399;-81
2022/01/31 01:52:44;;;;;;;29.35;19.82;;;24.90;89.50;;;;;;1955213;72;21112;-82
2022/01/31 01:55:15;;;;;;;26.12;19.55;;;25.00;89.60;;;;;;1912010;73;21158;-80
2022/01/31 01:57:47;;;;;;;26.90;20.77;;;25.00;88.10;;;;;;1954239;71;21613;-81
2022/01/31 02:00:25;;;;;;;29.98;20.25;;;25.10;89.00;;;;;;1963669;70;21120;-82
2022/01/31 02:02:50;;;;;;;29.07;21.50;;;25.10;89.00;;;;;;1968452;71;21057;-81
2022/01/31 02:05:21;;;;;;;35.73;27.15;;;25.20;89.40;;;;;;1975866;72;21135;-81
2022/01/31 02:07:52;;;;;;;31.87;23.35;;;25.20;88.80;;;;;;1950616;71;21587;-69
2022/01/31 02:10:25;;;;;;;33.40;23.22;;;25.30;89.00;;;;;;1979603;72;21104;-71
2022/01/31 02:12:55;;;;;;;33.80;23.18;;;25.30;88.80;;;;;;1884465;74;21088;-70
2022/01/31 02:15:26;;;;;;;33.65;22.55;;;25.30;87.90;;;;;;1926028;74;21072;-71
2022/01/31 02:17:57;;;;;;;30.60;22.20;;;25.30;88.60;;;;;;1966066;71;21116;-72
2022/01/31 02:20:27;;;;;;;33.45;22.82;;;25.40;88.60;;;;;;1968893;72;21139;-72
2022/01/31 02:22:59;;;;;;;88.33;67.92;;;25.50;88.70;;;;;;1973012;72;21059;-72
2022/01/31 02:25:30;;;;;;;33.45;24.32;;;25.50;88.70;;;;;;1963947;72;21186;-71
2022/01/31 02:28:01;;;;;;;33.53;25.20;;;25.60;87.80;;;;;;1968237;72;21128;-71
2022/01/31 02:30:31;;;;;;;167.28;136.22;;;25.70;88.00;;;;;;1960747;72;21072;-71
2022/01/31 02:33:02;;;;;;;34.70;25.50;;;25.70;87.50;;;;;;1959419;72;21099;-71
2022/01/31 02:35:35;;;;;;;34.75;23.67;;;25.80;87.20;;;;;;1976570;71;21603;-71
2022/01/31 02:38:05;;;;;;;36.17;23.85;;;25.80;87.20;;;;;;1952574;72;21193;-71
2022/01/31 02:40:36;;;;;;;36.08;24.10;;;25.90;86.70;;;;;;1914476;74;21144;-71
2022/01/31 02:43:06;;;;;;;31.87;23.52;;;25.90;86.60;;;;;;1965260;72;21052;-71
2022/01/31 02:45:37;;;;;;;35.55;24.47;;;26.00;85.70;;;;;;1869049;76;21649;-71
2022/01/31 02:48:08;;;;;;;31.75;23.92;;;26.10;86.10;;;;;;1952377;72;21758;-71
2022/01/31 02:50:41;;;;;;;33.67;23.75;;;26.10;85.60;;;;;;1955297;71;21161;-71
2022/01/31 02:53:22;;;;;;;31.75;24.45;;;26.20;85.50;;;;;;1970157;71;21173;-71
2022/01/31 02:55:47;;;;;;;31.52;23.38;;;26.20;84.80;;;;;;1968605;71;21166;-71
2022/01/31 02:58:19;;;;;;;30.27;23.90;;;26.30;84.90;;;;;;1969080;71;21142;-70
2022/01/31 03:00:50;;;;;;;33.55;23.35;;;26.30;84.40;;;;;;1964332;71;21123;-71
2022/01/31 03:03:22;;;;;;;40.48;25.57;;;26.40;84.20;;;;;;1975568;72;21062;-70
2022/01/31 03:05:54;;;;;;;33.20;23.92;;;26.40;83.20;;;;;;1964324;71;21618;-71
2022/01/31 03:08:25;;;;;;;29.35;23.42;;;26.50;83.30;;;;;;1940933;72;21178;-70
2022/01/31 03:10:56;;;;;;;31.85;22.35;;;26.60;83.60;;;;;;1973094;71;21603;-70
2022/01/31 03:13:27;;;;;;;32.50;23.77;;;26.70;82.90;;;;;;1969288;72;21138;-70
2022/01/31 03:15:58;;;;;;;30.15;22.27;;;26.70;82.80;;;;;;1960258;72;21572;-71
2022/01/31 03:18:31;;;;;;;29.72;21.73;;;26.80;82.20;;;;;;1956458;72;21111;-71
2022/01/31 03:21:02;;;;;;;30.27;22.32;;;26.90;81.40;;;;;;1962066;71;21117;-70
2022/01/31 03:23:34;;;;;;;30.37;22.20;;;26.90;81.70;;;;;;1955742;71;21151;-71
2022/01/31 03:26:05;;;;;;;28.42;21.52;;;27.00;80.10;;;;;;1957120;71;21091;-71
2022/01/31 03:28:36;;;;;;;29.63;23.15;;;27.10;79.40;;;;;;1953835;71;21053;-71
2022/01/31 03:31:07;;;;;;;31.12;23.07;;;27.20;79.60;;;;;;1945149;72;21085;-71
2022/01/31 03:33:37;;;;;;;28.92;21.90;;;27.30;79.40;;;;;;1951002;71;21076;-70
2022/01/31 03:36:08;;;;;;;28.40;21.02;;;27.30;78.50;;;;;;1943551;72;21092;-71
2022/01/31 03:38:40;;;;;;;26.52;21.15;;;27.40;78.30;;;;;;1950830;71;21659;-71
2022/01/31 03:41:12;;;;;;;28.05;21.45;;;27.50;77.30;;;;;;1961450;72;21716;-70
2022/01/31 03:43:43;;;;;;;30.62;20.43;;;27.60;78.00;;;;;;1956228;71;21103;-71
2022/01/31 03:46:14;;;;;;;27.15;21.20;;;27.70;77.60;;;;;;1963429;71;21194;-71
2022/01/31 03:48:45;;;;;;;30.27;21.73;;;27.80;77.10;;;;;;1949836;71;21081;-71
2022/01/31 03:51:16;;;;;;;29.32;21.25;;;27.80;77.20;;;;;;1949824;71;21096;-72
2022/01/31 03:53:47;;;;;;;28.57;20.95;;;28.00;76.20;;;;;;1948391;73;21277;-70
2022/01/31 03:56:18;;;;;;;25.92;18.52;;;28.10;75.90;;;;;;1961947;71;21151;-70
2022/01/31 03:58:48;;;;;;;24.02;17.82;;;28.30;73.40;;;;;;1925564;72;21171;-71
2022/01/31 04:01:19;;;;;;;26.85;19.45;;;28.40;72.60;;;;;;1983231;70;21197;-70
2022/01/31 04:03:50;;;;;;;21.57;18.00;;;28.50;71.40;;;;;;1956275;71;21087;-71
2022/01/31 04:06:23;;;;;;;20.17;16.90;;;28.70;70.80;;;;;;1946665;72;21746;-70
2022/01/31 04:08:54;;;;;;;19.25;16.70;;;28.80;70.40;;;;;;1913273;74;21148;-71
2022/01/31 04:11:25;;;;;;;24.43;17.45;;;28.90;70.40;;;;;;1942397;71;21163;-70
2022/01/31 04:13:56;;;;;;;23.67;17.15;;;29.00;68.60;;;;;;1947424;72;21870;-70
2022/01/31 04:16:27;;;;;;;22.58;17.35;;;29.10;68.90;;;;;;1952199;72;21159;-71
2022/01/31 04:18:58;;;;;;;21.70;17.20;;;29.20;68.20;;;;;;1949954;72;21666;-70
2022/01/31 04:21:28;;;;;;;22.98;16.97;;;29.30;67.50;;;;;;1947611;72;21155;-70
2022/01/31 04:23:59;;;;;;;27.90;18.25;;;29.40;66.80;;;;;;1952283;72;21175;-70
2022/01/31 04:26:33;;;;;;;27.13;16.62;;;29.60;66.40;;;;;;1949855;72;21186;-70
2022/01/31 04:29:08;;;;;;;26.42;16.87;;;29.80;66.70;;;;;;1949781;71;21536;-70
2022/01/31 04:31:40;;;;;;;29.90;18.35;;;29.90;66.20;;;;;;1951804;71;21619;-71
2022/01/31 04:34:07;;;;;;;24.07;17.77;;;30.00;65.10;;;;;;1949579;72;21104;-70
2022/01/31 04:36:38;;;;;;;23.55;17.50;;;30.10;64.00;;;;;;1947335;72;21132;-69
2022/01/31 04:39:15;;;;;;;24.50;17.10;;;30.20;64.10;;;;;;1956183;71;21633;-70
2022/01/31 04:41:41;;;;;;;20.75;15.50;;;30.30;63.70;;;;;;1963636;72;21145;-70
2022/01/31 04:44:12;;;;;;;22.62;17.92;;;30.40;62.80;;;;;;1964308;71;21575;-71
2022/01/31 04:46:45;;;;;;;23.67;15.20;;;30.50;64.20;;;;;;1955408;71;21678;-70
2022/01/31 04:49:15;;;;;;;18.05;16.15;;;30.50;62.20;;;;;;1953079;71;21138;-72
2022/01/31 04:51:45;;;;;;;20.65;14.75;;;30.60;63.70;;;;;;1949637;71;21186;-70
2022/01/31 04:54:17;;;;;;;19.48;15.40;;;30.70;62.00;;;;;;1951477;71;21662;-69
2022/01/31 04:56:47;;;;;;;18.10;13.70;;;30.70;61.40;;;;;;1944551;71;21552;-71
2022/01/31 04:59:19;;;;;;;20.08;13.80;;;30.80;59.50;;;;;;1913252;74;21134;-71
2022/01/31 05:01:50;;;;;;;21.73;13.48;;;30.90;59.90;;;;;;1955871;71;21860;-70
2022/01/31 05:04:21;;;;;;;20.05;13.15;;;31.10;59.50;;;;;;1945578;72;21080;-71
2022/01/31 05:06:52;;;;;;;15.55;11.75;;;31.20;58.70;;;;;;1924632;72;21116;-72
2022/01/31 05:09:23;;;;;;;16.52;11.65;;;31.30;57.20;;;;;;1973718;70;21642;-71
2022/01/31 05:11:54;;;;;;;14.23;12.25;;;31.40;57.90;;;;;;1975080;70;21104;-71
2022/01/31 05:14:24;;;;;;;15.38;11.18;;;31.40;57.50;;;;;;1965971;72;21167;-70
2022/01/31 05:16:55;;;;;;;12.95;11.12;;;31.50;57.10;;;;;;1963696;72;21816;-70
2022/01/31 05:19:26;;;;;;;12.03;10.70;;;31.60;56.70;;;;;;1968034;71;21190;-70
2022/01/31 05:21:57;;;;;;;12.50;9.90;;;31.70;55.50;;;;;;1961988;71;21588;-70
2022/01/31 05:24:28;;;;;;;14.70;11.65;;;31.80;56.20;;;;;;1966690;71;21144;-69
2022/01/31 05:27:00;;;;;;;15.45;11.00;;;31.80;56.80;;;;;;1957035;72;21192;-70
2022/01/31 05:29:31;;;;;;;15.03;10.85;;;31.90;56.10;;;;;;1878158;73;21174;-71
2022/01/31 05:32:02;;;;;;;11.70;8.78;;;31.90;55.40;;;;;;1951887;71;21268;-71
2022/01/31 05:34:33;;;;;;;11.88;8.93;;;32.00;53.50;;;;;;1891725;74;21691;-70
2022/01/31 05:37:04;;;;;;;14.28;9.88;;;32.00;54.20;;;;;;1959993;71;21186;-70
2022/01/31 05:39:34;;;;;;;14.45;10.40;;;32.10;55.10;;;;;;1916514;72;21598;-70
2022/01/31 05:42:05;;;;;;;14.10;10.15;;;32.10;53.00;;;;;;1956130;71;21131;-71
2022/01/31 05:44:36;;;;;;;13.20;10.18;;;32.20;53.60;;;;;;1957730;71;21116;-71
2022/01/31 05:47:07;;;;;;;13.93;9.08;;;32.20;52.20;;;;;;1940618;71;22522;-70
2022/01/31 05:49:38;;;;;;;12.15;8.98;;;;;;;;;;1970041;72;21119;-70
2022/01/31 05:52:10;;;;;;;11.15;9.58;;;;;;;;;;1899458;74;21125;-71
2022/01/31 05:54:41;;;;;;;17.80;11.57;;;;;;;;;;1924089;74;21245;-72
2022/01/31 05:57:12;;;;;;;15.68;11.22;;;32.40;95.00;;;;;;1911867;74;21080;-71
2022/01/31 05:59:43;;;;;;;16.40;11.43;;;32.40;52.50;;;;;;1961177;72;21875;-70
2022/01/31 06:02:14;;;;;;;15.88;10.88;;;32.40;52.90;;;;;;1939560;73;21065;-70
2022/01/31 06:04:44;;;;;;;10.78;9.25;;;32.40;52.20;;;;;;1917903;74;21128;-71
2022/01/31 06:07:15;;;;;;;11.75;8.58;;;32.40;51.10;;;;;;1942377;71;21193;-71
2022/01/31 06:09:46;;;;;;;14.68;9.48;;;32.50;49.70;;;;;;1956659;71;21190;-71
2022/01/31 06:12:17;;;;;;;15.50;10.93;;;32.50;50.80;;;;;;1950357;73;21100;-70
2022/01/31 06:14:48;;;;;;;14.98;11.88;;;32.60;51.70;;;;;;1953427;73;21572;-71
2022/01/31 06:17:18;;;;;;;14.25;11.65;;;32.60;51.80;;;;;;1942607;73;21112;-70
2022/01/31 06:19:48;;;;;;;16.32;11.93;;;32.60;52.60;;;;;;1962788;73;21080;-70
2022/01/31 06:22:19;;;;;;;13.83;10.55;;;32.60;52.90;;;;;;1969026;73;21072;-70
2022/01/31 06:24:50;;;;;;;14.25;10.88;;;32.60;51.40;;;;;;1968930;73;21179;-71
2022/01/31 06:27:21;;;;;;;13.83;10.72;;;32.60;51.20;;;;;;1938154;73;21625;-70
2022/01/31 06:29:51;;;;;;;12.68;10.90;;;32.60;51.90;;;;;;1921323;73;21120;-72
2022/01/31 06:32:25;;;;;;;15.25;10.72;;;32.60;50.60;;;;;;1878278;76;21555;-70
2022/01/31 06:34:57;;;;;;;32.58;11.10;;;32.60;50.90;;;;;;1905478;75;21069;-71
2022/01/31 06:37:27;;;;;;;15.20;11.53;;;32.70;51.10;;;;;;1913433;75;21700;-69
2022/01/31 06:39:58;;;;;;;18.82;11.93;;;32.70;50.90;;;;;;1904520;75;21677;-71
2022/01/31 06:42:29;;;;;;;14.68;10.80;;;32.80;51.30;;;;;;1907989;75;21178;-71
2022/01/31 06:45:00;;;;;;;16.55;11.20;;;32.80;51.30;;;;;;1929864;74;21152;-70
2022/01/31 06:47:31;;;;;;;14.87;11.97;;;32.80;51.80;;;;;;1968067;73;21108;-70
2022/01/31 06:50:04;;;;;;;13.58;11.40;;;32.80;52.40;;;;;;1928324;74;21069;-70
2022/01/31 06:52:36;;;;;;;14.53;11.78;;;32.60;52.70;;;;;;1939937;74;21193;-71
2022/01/31 06:55:14;;;;;;;15.72;11.88;;;32.50;53.40;;;;;;1951239;72;21077;-70
2022/01/31 06:57:43;;;;;;;17.10;11.63;;;32.40;53.80;;;;;;1950800;72;21600;-71
2022/01/31 07:00:14;;;;;;;17.00;12.33;;;32.40;53.80;;;;;;1950252;73;21577;-71
2022/01/31 07:02:45;;;;;;;15.25;11.22;;;32.50;60.00;;;;;;1895289;74;21165;-72
2022/01/31 07:05:17;;;;;;;16.77;11.22;;;32.50;61.90;;;;;;1951704;73;21194;-70
2022/01/31 07:07:48;;;;;;;19.80;11.68;;;32.60;57.30;;;;;;1956108;72;21277;-71
2022/01/31 07:10:19;;;;;;;14.10;11.15;;;32.70;56.70;;;;;;1954236;72;21085;-70
2022/01/31 07:12:53;;;;;;;15.98;10.20;;;32.70;56.10;;;;;;1951349;73;21123;-71
2022/01/31 07:15:23;;;;;;;15.60;9.73;;;32.90;55.90;;;;;;1952444;72;21080;-69
2022/01/31 07:17:54;;;;;;;13.83;10.05;;;33.00;60.20;;;;;;1947620;72;21579;-70
2022/01/31 07:20:37;;;;;;;14.28;9.95;;;32.90;55.10;;;;;;1949658;72;21100;-70
2022/01/31 07:23:02;;;;;;;14.43;9.25;;;33.00;56.50;;;;;;1953738;72;21648;-69
2022/01/31 07:25:34;;;;;;;12.33;9.58;;;33.10;62.00;;;;;;1944538;73;21105;-69
2022/01/31 07:28:04;;;;;;;15.48;10.63;;;33.10;61.80;;;;;;1944676;73;21540;-70
2022/01/31 07:30:35;;;;;;;13.75;10.28;;;33.00;66.50;;;;;;1944360;72;21167;-70
2022/01/31 07:33:08;;;;;;;16.17;10.68;;;33.30;65.50;;;;;;1952731;72;21108;-71
2022/01/31 07:35:40;;;;;;;13.80;9.85;;;33.00;52.90;;;;;;1951714;72;21154;-71
2022/01/31 07:38:13;;;;;;;12.55;9.65;;;32.90;51.30;;;;;;1943783;73;21687;-71
2022/01/31 07:40:44;;;;;;;17.80;10.48;;;32.80;48.80;;;;;;1914370;73;21580;-70
2022/01/31 07:43:15;;;;;;;13.62;10.35;;;32.90;49.70;;;;;;1915600;73;21149;-70
2022/01/31 07:45:46;;;;;;;13.58;10.10;;;32.90;49.50;;;;;;1865983;75;21428;-70
2022/01/31 07:48:17;;;;;;;14.00;9.98;;;32.90;49.40;;;;;;1950860;72;21104;-70
2022/01/31 07:50:48;;;;;;;11.50;10.28;;;32.80;51.00;;;;;;1943408;73;21193;-72
2022/01/31 07:53:19;;;;;;;13.25;10.00;;;32.70;49.80;;;;;;1946075;73;21177;-70
2022/01/31 07:55:50;;;;;;;11.38;9.80;;;32.60;50.10;;;;;;1951329;72;21197;-70
2022/01/31 07:58:21;;;;;;;16.25;10.32;;;32.60;49.70;;;;;;1945454;73;21825;-70
2022/01/31 08:00:51;;;;;;;12.37;10.23;;;32.60;49.30;;;;;;1954650;73;21548;-71
2022/01/31 08:03:22;;;;;;;13.48;10.50;;;32.60;49.80;;;;;;1954158;72;21103;-70
2022/01/31 08:05:53;;;;;;;11.15;9.95;;;32.70;49.80;;;;;;1876644;75;21165;-70
2022/01/31 08:08:30;;;;;;;14.28;11.12;;;32.70;49.80;;;;;;1975387;71;21115;-70
2022/01/31 08:10:57;;;;;;;13.85;10.60;;;32.60;49.70;;;;;;1909934;74;21203;-70
2022/01/31 08:13:28;;;;;;;14.55;10.53;;;32.60;49.90;;;;;;1906724;74;21759;-70
2022/01/31 08:16:09;;;;;;;13.22;10.03;;;32.60;49.70;;;;;;1906827;74;21119;-70
2022/01/31 08:18:32;;;;;;;14.80;10.23;;;32.60;49.70;;;;;;1909609;74;21197;-70
2022/01/31 08:21:03;;;;;;;11.60;8.93;;;32.60;49.20;;;;;;1889475;76;21104;-70
2022/01/31 08:23:35;;;;;;;11.48;8.70;;;32.60;48.30;;;;;;1902318;73;21056;-71
2022/01/31 08:26:10;;;;;;;18.95;9.70;;;32.70;48.60;;;;;;1980506;72;21590;-69
2022/01/31 08:28:49;;;;;;;13.35;8.30;;;32.70;48.70;;;;;;1948134;74;21581;-69
2022/01/31 08:31:21;;;;;;;12.65;8.58;;;32.70;48.70;;;;;;1952174;73;21551;-69
2022/01/31 08:34:03;;;;;;;10.90;7.90;;;32.70;48.30;;;;;;1963365;73;21512;-71
2022/01/31 08:36:18;;;;;;;17.92;8.78;;;32.70;48.00;;;;;;1945028;74;21629;-70
2022/01/31 08:38:50;;;;;;;9.78;8.08;;;32.70;49.10;;;;;;1947458;74;21484;-71
2022/01/31 08:41:21;;;;;;;12.07;8.30;;;32.80;50.70;;;;;;1967810;71;21633;-71
2022/01/31 08:43:52;;;;;;;15.43;8.95;;;32.70;51.60;;;;;;1978762;72;21100;-71
2022/01/31 08:46:23;;;;;;;11.95;9.03;;;32.70;51.70;;;;;;1968872;73;21882;-69
2022/01/31 08:48:55;;;;;;;15.80;9.48;;;32.60;52.60;;;;;;1969767;71;21528;-70
2022/01/31 08:51:27;;;;;;;11.95;7.58;;;32.70;52.20;;;;;;1973236;72;21673;-70
2022/01/31 08:53:58;;;;;;;12.85;8.40;;;32.60;53.90;;;;;;1975673;72;21136;-70
2022/01/31 08:56:29;;;;;;;13.18;7.92;;;32.60;54.80;;;;;;1948896;73;21108;-70
2022/01/31 08:58:59;;;;;;;15.23;7.97;;;32.60;56.40;;;;;;1951595;73;21147;-71
2022/01/31 09:01:30;;;;;;;11.57;8.53;;;32.70;59.50;;;;;;1962822;72;21221;-71
2022/01/31 09:04:03;;;;;;;10.43;8.53;;;32.70;56.90;;;;;;1945222;72;21167;-70
2022/01/31 09:06:36;;;;;;;13.70;9.90;;;32.70;57.20;;;;;;1922583;74;21648;-70
2022/01/31 09:09:09;;;;;;;12.45;9.10;;;32.60;57.80;;;;;;1955135;72;21074;-71
2022/01/31 09:11:40;;;;;;;11.53;8.28;;;32.60;55.10;;;;;;1943660;73;21193;-70
2022/01/31 09:14:11;;;;;;;9.78;7.58;;;32.60;56.20;;;;;;1956150;72;21164;-70
2022/01/31 09:16:41;;;;;;;11.55;8.73;;;32.60;57.70;;;;;;1943049;72;21210;-73
2022/01/31 09:19:12;;;;;;;13.80;8.73;;;32.50;55.00;;;;;;1929795;72;21061;-71
2022/01/31 09:21:43;;;;;;;10.25;8.20;;;32.60;57.00;;;;;;1951427;72;21608;-70
2022/01/31 09:24:14;;;;;;;9.60;7.62;;;32.50;56.70;;;;;;1949701;72;21100;-70
2022/01/31 09:26:57;;;;;;;8.85;7.95;;;32.60;57.90;;;;;;1949778;72;21049;-70
2022/01/31 09:29:28;;;;;;;12.95;8.70;;;32.40;69.60;;;;;;1956010;73;21226;-71
2022/01/31 09:32:02;;;;;;;11.12;8.50;;;32.50;67.20;;;;;;1955801;72;21166;-71
2022/01/31 09:34:32;;;;;;;11.83;7.90;;;32.40;68.00;;;;;;1965903;72;21174;-70
2022/01/31 09:37:05;;;;;;;15.38;9.30;;;32.30;47.60;;;;;;1960443;72;21061;-71
2022/01/31 09:39:36;;;;;;;10.90;7.78;;;32.30;48.40;;;;;;1945615;72;21065;-71
2022/01/31 09:42:12;;;;;;;12.80;8.88;;;32.30;48.20;;;;;;1931005;73;21140;-71
2022/01/31 09:47:22;;;;;;;11.43;8.45;;;32.30;48.60;;;;;;1938826;72;21224;-70
2022/01/31 09:49:45;;;;;;;13.13;8.18;;;32.30;48.40;;;;;;1950455;73;21108;-70
2022/01/31 09:52:19;;;;;;;11.15;8.38;;;32.30;48.80;;;;;;1964634;72;21142;-70
2022/01/31 09:54:50;;;;;;;14.55;9.43;;;32.20;49.40;;;;;;1948641;72;21140;-71
2022/01/31 09:57:21;;;;;;;14.60;9.43;;;32.20;48.90;;;;;;1922696;74;21661;-71
2022/01/31 09:59:52;;;;;;;12.75;8.90;;;32.10;48.80;;;;;;1975130;72;21520;-71
2022/01/31 10:02:23;;;;;;;18.85;10.75;;;32.10;48.90;;;;;;1950023;71;21128;-71
2022/01/31 10:04:54;;;;;;;12.75;11.40;;;32.10;49.30;;;;;;1951969;72;21523;-71
2022/01/31 10:07:24;;;;;;;12.47;9.45;;;32.00;49.10;;;;;;1962743;72;21214;-71
2022/01/31 10:09:55;;;;;;;10.95;8.80;;;31.90;49.50;;;;;;1934591;72;21079;-70
2022/01/31 10:17:29;;;;;;;17.15;8.98;;;31.90;49.20;;;;;;1977433;71;21555;-71
2022/01/31 10:20:04;;;;;;;11.68;8.25;;;31.90;49.50;;;;;;1943728;73;21185;-70
2022/01/31 10:22:44;;;;;;;10.18;7.53;;;31.90;49.00;;;;;;1962654;73;21572;-69
2022/01/31 10:25:12;;;;;;;13.98;9.15;;;31.80;49.20;;;;;;1906260;74;21089;-70
2022/01/31 10:27:47;;;;;;;17.87;8.50;;;31.80;49.60;;;;;;1890780;74;21116;-70
2022/01/31 10:30:20;;;;;;;11.22;8.05;;;31.80;49.00;;;;;;1897002;74;21675;-70
2022/01/31 10:32:53;;;;;;;10.38;8.05;;;31.70;49.20;;;;;;1966164;71;21061;-70
2022/01/31 10:35:28;;;;;;;15.28;8.48;;;31.70;49.40;;;;;;1958791;71;21059;-70
2022/01/31 10:38:03;;;;;;;11.45;8.05;;;31.70;49.20;;;;;;1958456;72;21753;-70
2022/01/31 10:51:09;;;;;;;12.73;9.13;;;31.50;49.90;;;;;;1942067;72;21603;-71
2022/01/31 10:53:20;;;;;;;14.13;9.25;;;31.50;50.30;;;;;;1958535;71;21091;-71
2022/01/31 10:55:54;;;;;;;26.82;12.43;;;31.40;49.90;;;;;;1969106;73;21057;-71
2022/01/31 10:58:25;;;;;;;19.05;11.40;;;31.40;50.50;;;;;;1956573;72;21555;-71
2022/01/31 11:00:55;;;;;;;12.88;9.05;;;31.30;50.50;;;;;;1907858;72;21688;-70
2022/01/31 11:03:29;;;;;;;18.80;10.08;;;31.30;50.50;;;;;;1958756;72;21158;-70
2022/01/31 11:06:02;;;;;;;16.07;10.50;;;31.30;50.70;;;;;;1961244;72;21128;-70
2022/01/31 11:08:33;;;;;;;21.10;11.57;;;31.20;51.60;;;;;;1943868;71;21102;-71
2022/01/31 11:11:04;;;;;;;15.98;11.15;;;31.10;52.30;;;;;;1940088;73;21159;-71
2022/01/31 11:13:38;;;;;;;15.53;11.00;;;31.10;52.60;;;;;;1948355;73;21061;-70
2022/01/31 11:16:09;;;;;;;18.92;11.97;;;31.00;53.10;;;;;;1887082;75;21712;-70
2022/01/31 11:18:44;;;;;;;13.60;10.80;;;31.00;53.40;;;;;;1941902;73;21122;-69
2022/01/31 11:21:15;;;;;;;17.32;11.70;;;31.00;53.70;;;;;;1943386;73;21193;-70
2022/01/31 11:23:51;;;;;;;15.20;11.08;;;30.90;54.00;;;;;;1959128;72;21575;-70
2022/01/31 11:26:22;;;;;;;17.62;11.40;;;30.90;54.10;;;;;;1924673;73;21654;-70
2022/01/31 11:28:54;;;;;;;17.85;11.18;;;30.80;54.30;;;;;;1928354;73;21169;-70
2022/01/31 11:31:26;;;;;;;20.40;11.75;;;30.80;54.60;;;;;;1917847;74;21087;-70
2022/01/31 11:33:58;;;;;;;18.67;12.10;;;30.80;54.80;;;;;;1948831;73;21550;-71
2022/01/31 11:36:30;;;;;;;20.77;12.75;;;30.70;55.00;;;;;;1967321;72;21642;-70
2022/01/31 11:39:02;;;;;;;18.32;12.98;;;30.70;55.20;;;;;;1971150;72;21583;-71
2022/01/31 11:41:34;;;;;;;16.55;11.30;;;30.60;55.40;;;;;;1960925;72;21071;-71
2022/01/31 11:44:07;;;;;;;21.57;12.95;;;30.60;55.50;;;;;;1962636;71;21680;-71
2022/01/31 11:46:40;;;;;;;18.30;12.33;;;30.60;55.70;;;;;;1923975;73;21602;-71
2022/01/31 11:49:14;;;;;;;24.43;13.78;;;30.60;56.00;;;;;;1934183;73;21241;-70
2022/01/31 11:51:47;;;;;;;16.30;12.65;;;30.50;56.00;;;;;;1875524;75;21084;-70
2022/01/31 11:54:20;;;;;;;22.17;14.00;;;30.50;56.20;;;;;;1974815;72;21599;-70
2022/01/31 11:56:53;;;;;;;22.07;13.48;;;30.40;56.20;;;;;;1878429;74;21663;-70
2022/01/31 11:59:26;;;;;;;19.00;13.05;;;30.40;56.20;;;;;;1899017;74;21103;-70
2022/01/31 12:01:59;;;;;;;20.32;13.38;;;30.30;56.80;;;;;;1975358;71;21183;-69
2022/01/31 12:04:33;;;;;;;19.30;12.40;;;30.30;57.00;;;;;;1987955;70;21630;-69
2022/01/31 12:07:07;;;;;;;21.57;13.72;;;30.30;56.90;;;;;;1947749;73;21188;-69
2022/01/31 12:09:39;;;;;;;18.82;13.45;;;30.30;57.40;;;;;;1956410;71;21669;-69
2022/01/31 12:12:18;;;;;;;18.73;13.53;;;30.30;57.60;;;;;;1959073;71;21381;-70
2022/01/31 12:14:54;;;;;;;16.70;13.55;;;30.20;57.60;;;;;;1970881;72;21068;-69
2022/01/31 12:17:31;;;;;;;17.98;13.62;;;30.20;57.70;;;;;;1952746;72;21096;-70
2022/01/31 12:20:02;;;;;;;18.65;13.58;;;30.10;57.80;;;;;;1964701;71;21097;-69
2022/01/31 12:22:26;;;;;;;20.10;14.10;;;30.10;58.00;;;;;;1962960;72;21614;-70
2022/01/31 12:24:57;;;;;;;18.60;13.68;;;30.10;58.10;;;;;;1950190;72;21093;-71
2022/01/31 12:27:29;;;;;;;22.15;14.30;;;30.00;58.30;;;;;;1965620;72;21045;-70
2022/01/31 12:30:01;;;;;;;18.15;14.10;;;30.00;58.50;;;;;;1955947;72;21524;-70
2022/01/31 12:32:35;;;;;;;23.47;14.40;;;30.00;58.60;;;;;;1940948;73;21127;-70
2022/01/31 12:35:08;;;;;;;21.10;15.32;;;30.00;58.70;;;;;;1937109;72;21069;-70
2022/01/31 12:37:41;;;;;;;27.13;20.08;;;29.90;58.90;;;;;;1965103;72;21132;-71
2022/01/31 12:40:14;;;;;;;23.73;16.67;;;29.90;59.00;;;;;;1949402;72;21241;-71
2022/01/31 12:45:21;;;;;;;22.13;15.48;;;29.90;58.90;;;;;;1948688;72;21101;-71
2022/01/31 12:47:54;;;;;;;19.92;14.70;;;29.90;58.90;;;;;;1951131;72;21584;-71
2022/01/31 12:50:26;;;;;;;20.57;14.73;;;29.90;58.90;;;;;;1944798;72;21108;-71
2022/01/31 12:53:03;;;;;;;23.25;14.38;;;29.80;58.60;;;;;;1961495;72;21182;-71
2022/01/31 12:55:30;;;;;;;21.75;14.68;;;29.90;58.80;;;;;;1935975;73;21156;-71
2022/01/31 12:58:01;;;;;;;19.52;13.90;;;29.80;58.60;;;;;;1966706;71;21140;-70
2022/01/31 13:00:38;;;;;;;19.98;14.60;;;29.80;58.70;;;;;;1969797;72;21595;-71
2022/01/31 13:03:09;;;;;;;20.73;14.80;;;29.80;58.80;;;;;;1937528;72;21136;-69
2022/01/31 13:05:41;;;;;;;23.27;14.10;;;29.80;58.90;;;;;;1955788;72;21422;-70
2022/01/31 13:08:14;;;;;;;21.68;14.35;;;29.80;59.00;;;;;;1931162;72;21189;-70
2022/01/31 13:10:45;;;;;;;19.75;14.00;;;29.70;59.10;;;;;;1983899;71;21174;-70
2022/01/31 13:13:16;;;;;;;19.07;14.13;;;29.80;59.40;;;;;;1976262;71;21137;-71